createdAt,value
2022-08-26T00:02:03.861Z,100344.38
2022-08-26T00:04:39.179Z,100338.56
2022-08-26T00:07:09.063Z,100336.53
2022-08-26T00:09:41.905Z,100343.44
2022-08-26T00:12:17.137Z,100347.97
2022-08-26T00:14:47.680Z,100343.09
2022-08-26T00:17:17.667Z,100339.81
2022-08-26T00:19:47.507Z,100331.66
2022-08-26T00:22:21.611Z,100336.53
2022-08-26T00:24:55.708Z,100332.75
2022-08-26T00:27:25.553Z,100338.59
2022-08-26T00:29:55.414Z,100328.22
2022-08-26T00:32:26.748Z,100332.31
2022-08-26T00:34:57.390Z,100331.19
2022-08-26T00:37:27.248Z,100332.16
2022-08-26T00:40:00.819Z,100336.41
2022-08-26T00:42:36.452Z,100332.47
2022-08-26T00:45:11.610Z,100342.69
2022-08-26T00:47:47.213Z,100322.91
2022-08-26T00:50:21.057Z,100335.75
2022-08-26T00:52:52.049Z,100327.59
2022-08-26T00:55:37.827Z,100334.00
2022-08-26T00:58:11.420Z,100336.69
2022-08-26T01:00:41.292Z,100325.38
2022-08-26T01:03:17.416Z,100326.63
2022-08-26T01:05:47.453Z,100329.00
2022-08-26T01:08:17.574Z,100328.66
2022-08-26T01:10:50.572Z,100326.97
2022-08-26T01:13:21.402Z,100328.38
2022-08-26T01:15:56.897Z,100325.50
2022-08-26T01:18:27.749Z,100328.81
2022-08-26T01:21:04.464Z,100327.72
2022-08-26T01:23:41.115Z,100335.09
2022-08-26T01:26:22.195Z,100340.56
2022-08-26T01:28:54.494Z,100335.38
2022-08-26T01:31:27.829Z,100331.47
2022-08-26T01:34:05.421Z,100324.25
2022-08-26T01:36:35.234Z,100333.47
2022-08-26T01:39:10.571Z,100330.31
2022-08-26T01:41:42.912Z,100328.00
2022-08-26T01:44:20.990Z,100336.13
2022-08-26T01:46:53.447Z,100336.91
2022-08-26T01:49:26.004Z,100330.16
2022-08-26T01:51:59.988Z,100331.88
2022-08-26T01:54:32.662Z,100331.44
2022-08-26T01:57:04.536Z,100322.97
2022-08-26T01:59:35.163Z,100320.25
2022-08-26T02:02:05.110Z,100323.53
2022-08-26T02:04:39.411Z,100319.44
2022-08-26T02:07:13.022Z,100318.69
2022-08-26T02:09:45.724Z,100320.56
2022-08-26T02:12:20.019Z,100321.78
2022-08-26T02:14:53.868Z,100325.00
2022-08-26T02:17:33.981Z,100320.13
2022-08-26T02:20:05.597Z,100314.03
2022-08-26T02:22:45.217Z,100321.22
2022-08-26T02:25:27.772Z,100323.28
2022-08-26T02:27:58.349Z,100325.91
2022-08-26T02:30:31.781Z,100326.97
2022-08-26T02:33:04.045Z,100329.00
2022-08-26T02:35:38.365Z,100323.19
2022-08-26T02:38:11.866Z,100317.34
2022-08-26T02:40:45.834Z,100316.91
2022-08-26T02:43:18.043Z,100316.13
2022-08-26T02:45:47.863Z,100325.03
2022-08-26T02:48:21.530Z,100318.63
2022-08-26T02:50:52.067Z,100319.41
2022-08-26T02:53:25.473Z,100320.31
2022-08-26T02:56:00.990Z,100312.59
2022-08-26T02:58:31.861Z,100315.56
2022-08-26T03:01:02.129Z,100306.78
2022-08-26T03:03:35.867Z,100315.22
2022-08-26T03:06:05.932Z,100312.09
2022-08-26T03:08:36.279Z,100311.41
2022-08-26T03:11:13.159Z,100305.78
2022-08-26T03:13:45.709Z,100314.06
2022-08-26T03:16:16.696Z,100310.13
2022-08-26T03:18:47.010Z,100303.38
2022-08-26T03:21:23.173Z,100306.19
2022-08-26T03:23:55.259Z,100308.69
2022-08-26T03:26:31.756Z,100319.94
2022-08-26T03:29:14.900Z,100311.19
2022-08-26T03:31:45.576Z,100315.09
2022-08-26T03:34:17.528Z,100311.94
2022-08-26T03:36:47.957Z,100308.03
2022-08-26T03:39:18.692Z,100297.38
2022-08-26T03:41:51.975Z,100296.25
2022-08-26T03:44:23.245Z,100303.44
2022-08-26T03:46:54.012Z,100301.22
2022-08-26T03:49:25.510Z,100307.63
2022-08-26T03:51:58.893Z,100296.50
2022-08-26T03:54:28.817Z,100297.94
2022-08-26T03:57:02.246Z,100285.13
2022-08-26T03:59:34.050Z,100294.63
2022-08-26T04:02:11.301Z,100295.53
2022-08-26T04:04:41.408Z,100294.44
2022-08-26T04:07:11.527Z,100284.84
2022-08-26T04:09:43.641Z,100298.63
2022-08-26T04:12:17.676Z,100285.91
2022-08-26T04:14:47.532Z,100295.91
2022-08-26T04:17:17.444Z,100298.88
2022-08-26T04:19:47.434Z,100296.53
2022-08-26T04:22:24.200Z,100286.31
2022-08-26T04:24:56.530Z,100294.16
2022-08-26T04:27:30.818Z,100287.47
2022-08-26T04:30:03.192Z,100291.28
2022-08-26T04:32:33.809Z,100293.19
2022-08-26T04:35:05.101Z,100297.25
2022-08-26T04:37:36.654Z,100296.00
2022-08-26T04:40:10.619Z,100295.53
2022-08-26T04:42:44.716Z,100290.03
2022-08-26T04:45:15.216Z,100294.63
2022-08-26T04:47:47.172Z,100293.19
2022-08-26T04:50:20.393Z,100295.31
2022-08-26T04:52:51.507Z,100287.22
2022-08-26T04:55:21.387Z,100281.84
2022-08-26T04:58:12.831Z,100289.25
2022-08-26T05:00:44.811Z,100297.56
2022-08-26T05:03:15.147Z,100282.59
2022-08-26T05:05:47.908Z,100291.63
2022-08-26T05:08:19.577Z,100292.41
2022-08-26T05:10:51.818Z,100292.72
2022-08-26T05:13:25.358Z,100296.47
2022-08-26T05:15:55.940Z,100301.16
2022-08-26T05:18:31.322Z,100301.75
2022-08-26T05:21:01.277Z,100302.41
2022-08-26T05:23:33.952Z,100303.44
2022-08-26T05:26:05.018Z,100305.66
2022-08-26T05:28:38.174Z,100310.19
2022-08-26T05:31:18.598Z,100307.50
2022-08-26T05:33:48.677Z,100311.69
2022-08-26T05:36:22.006Z,100315.06
2022-08-26T05:38:55.210Z,100303.41
2022-08-26T05:41:34.497Z,100301.44
2022-08-26T05:44:11.293Z,100296.97
2022-08-26T05:46:41.822Z,100303.44
2022-08-26T05:49:16.311Z,100308.28
2022-08-26T05:51:48.609Z,100306.56
2022-08-26T05:54:24.037Z,100304.22
2022-08-26T05:56:54.072Z,100298.13
2022-08-26T05:59:30.393Z,100284.94
2022-08-26T06:02:05.351Z,100296.63
2022-08-26T06:04:35.142Z,100295.66
2022-08-26T06:07:06.376Z,100289.63
2022-08-26T06:09:40.112Z,100283.97
2022-08-26T06:12:13.171Z,100288.88
2022-08-26T06:14:49.018Z,100291.03
2022-08-26T06:17:19.162Z,100290.31
2022-08-26T06:19:50.848Z,100282.63
2022-08-26T06:22:32.716Z,100285.84
2022-08-26T06:25:17.511Z,100284.69
2022-08-26T06:27:48.978Z,100288.78
2022-08-26T06:30:22.331Z,100288.47
2022-08-26T06:32:52.627Z,100284.69
2022-08-26T06:35:23.179Z,100282.00
2022-08-26T06:37:56.224Z,100295.00
2022-08-26T06:40:29.085Z,100296.78
2022-08-26T06:42:59.178Z,100300.03
2022-08-26T06:45:33.489Z,100298.88
2022-08-26T06:48:03.256Z,100305.06
2022-08-26T06:50:33.806Z,100296.25
2022-08-26T06:53:03.553Z,100302.28
2022-08-26T06:55:36.616Z,100305.56
2022-08-26T06:58:06.746Z,100309.09
2022-08-26T07:00:40.071Z,100303.59
2022-08-26T07:03:13.754Z,100305.97
2022-08-26T07:05:43.756Z,100315.44
2022-08-26T07:08:13.664Z,100306.19
2022-08-26T07:10:44.881Z,100305.03
2022-08-26T07:13:14.568Z,100300.84
2022-08-26T07:15:48.913Z,100307.06
2022-08-26T07:18:26.922Z,100314.44
2022-08-26T07:20:56.746Z,100313.31
2022-08-26T07:23:26.704Z,100307.03
2022-08-26T07:26:00.117Z,100310.88
2022-08-26T07:28:32.615Z,100304.28
2022-08-26T07:31:07.439Z,100309.06
2022-08-26T07:33:43.094Z,100301.59
2022-08-26T07:36:16.715Z,100301.97
2022-08-26T07:38:48.419Z,100309.78
2022-08-26T07:41:20.127Z,100309.28
2022-08-26T07:43:52.449Z,100317.34
2022-08-26T07:46:30.257Z,100312.75
2022-08-26T07:49:01.684Z,100314.53
2022-08-26T07:51:33.499Z,100318.81
2022-08-26T07:54:05.643Z,100321.84
2022-08-26T07:56:36.016Z,100322.13
2022-08-26T07:59:14.044Z,100325.88
2022-08-26T08:01:51.564Z,100329.78
2022-08-26T08:04:27.509Z,100318.09
2022-08-26T08:06:57.937Z,100326.06
2022-08-26T08:09:29.035Z,100316.56
2022-08-26T08:11:58.686Z,100330.88
2022-08-26T08:14:31.241Z,100326.00
2022-08-26T08:17:04.040Z,100316.94
2022-08-26T08:19:38.947Z,100323.94
2022-08-26T08:22:17.988Z,100319.72
2022-08-26T08:24:53.036Z,100318.38
2022-08-26T08:27:24.327Z,100319.69
2022-08-26T08:29:55.040Z,100310.34
2022-08-26T08:32:28.341Z,100305.47
2022-08-26T08:34:58.891Z,100308.81
2022-08-26T08:37:29.356Z,100309.84
2022-08-26T08:39:59.230Z,100307.53
2022-08-26T08:42:46.308Z,100302.28
2022-08-26T08:45:20.633Z,100307.34
2022-08-26T08:47:56.173Z,100302.78
2022-08-26T08:50:32.415Z,100298.53
2022-08-26T08:53:11.516Z,100290.00
2022-08-26T08:56:18.165Z,100295.13
2022-08-26T08:58:57.442Z,100274.34
2022-08-26T09:01:36.723Z,100279.53
2022-08-26T09:04:33.099Z,100278.81
2022-08-26T09:07:05.328Z,100275.00
2022-08-26T09:09:40.895Z,100262.91
2022-08-26T09:12:17.805Z,100253.63
2022-08-26T09:14:51.159Z,100254.41
2022-08-26T09:17:32.822Z,100248.69
2022-08-26T09:20:15.193Z,100248.47
2022-08-26T09:22:46.139Z,100252.34
2022-08-26T09:25:18.676Z,100238.84
2022-08-26T09:27:52.199Z,100243.94
2022-08-26T09:30:29.459Z,100234.56
2022-08-26T09:33:10.929Z,100250.72
2022-08-26T09:35:48.727Z,100244.19
2022-08-26T09:38:30.371Z,100248.53
2022-08-26T09:41:02.640Z,100238.84
2022-08-26T09:43:35.903Z,100243.00
2022-08-26T09:46:17.872Z,100241.97
2022-08-26T09:48:47.923Z,100245.56
2022-08-26T09:51:34.717Z,100237.22
2022-08-26T09:54:08.102Z,100238.59
2022-08-26T09:56:40.005Z,100240.53
2022-08-26T09:59:16.656Z,100244.31
2022-08-26T10:01:48.997Z,100246.50
2022-08-26T10:04:26.800Z,100242.94
2022-08-26T10:07:12.576Z,100243.63
2022-08-26T10:09:48.502Z,100237.59
2022-08-26T10:12:25.543Z,100233.63
2022-08-26T10:14:59.821Z,100229.56
2022-08-26T10:17:35.246Z,100230.03
2022-08-26T10:20:23.229Z,100230.16
2022-08-26T10:23:02.361Z,100222.69
2022-08-26T10:25:36.441Z,100227.69
2022-08-26T10:28:17.178Z,100223.88
2022-08-26T10:30:55.115Z,100222.28
2022-08-26T10:33:29.873Z,100220.03
2022-08-26T10:36:02.466Z,100219.06
2022-08-26T10:38:38.305Z,100216.97
2022-08-26T10:41:16.861Z,100209.22
2022-08-26T10:43:55.069Z,100204.28
2022-08-26T10:46:28.812Z,100212.00
2022-08-26T10:49:03.189Z,100200.81
2022-08-26T10:51:42.275Z,100196.72
2022-08-26T10:54:25.097Z,100194.88
2022-08-26T10:57:02.280Z,100190.81
2022-08-26T10:59:46.608Z,100187.44
2022-08-26T11:02:25.047Z,100179.91
2022-08-26T11:04:59.699Z,100177.69
2022-08-26T11:07:39.774Z,100178.34
2022-08-26T11:10:35.378Z,100179.38
2022-08-26T11:13:08.392Z,100176.41
2022-08-26T11:16:01.633Z,100177.28
2022-08-26T11:18:44.981Z,100174.84
2022-08-26T11:21:45.320Z,100171.06
2022-08-26T11:24:53.628Z,100167.56
2022-08-26T11:27:57.749Z,100153.88
2022-08-26T11:30:44.090Z,100145.97
2022-08-26T11:33:34.364Z,100135.38
2022-08-26T11:36:12.084Z,100130.50
2022-08-26T11:38:46.636Z,100128.41
2022-08-26T11:41:29.250Z,100132.28
2022-08-26T11:44:02.572Z,100122.50
2022-08-26T11:46:37.744Z,100112.91
2022-08-26T11:49:13.131Z,100117.56
2022-08-26T11:51:48.392Z,100103.78
2022-08-26T11:54:34.974Z,100108.94
2022-08-26T11:57:11.928Z,100110.28
2022-08-26T11:59:44.590Z,100107.44
2022-08-26T12:02:19.995Z,100107.97
2022-08-26T12:04:53.053Z,100100.19
2022-08-26T12:07:30.700Z,100103.78
2022-08-26T12:10:04.130Z,100088.75
2022-08-26T12:12:38.886Z,100091.59
2022-08-26T12:15:12.651Z,100081.06
2022-08-26T12:17:43.583Z,100089.47
2022-08-26T12:20:49.076Z,100088.44
2022-08-26T12:23:31.341Z,100088.09
2022-08-26T12:26:10.478Z,100079.47
2022-08-26T12:28:46.949Z,100081.53
2022-08-26T12:31:27.588Z,100082.41
2022-08-26T12:34:00.363Z,100077.50
2022-08-26T12:36:33.717Z,100082.47
2022-08-26T12:39:30.007Z,100069.22
2022-08-26T12:42:03.964Z,100074.66
2022-08-26T12:44:40.679Z,100075.66
2022-08-26T12:47:16.621Z,100080.47
2022-08-26T12:50:04.804Z,100086.09
2022-08-26T12:52:38.780Z,100090.75
2022-08-26T12:55:24.188Z,100097.78
2022-08-26T12:58:16.779Z,100090.91
2022-08-26T13:00:49.214Z,100087.09
2022-08-26T13:03:43.661Z,100072.66
2022-08-26T13:06:19.909Z,100068.56
2022-08-26T13:08:53.662Z,100062.09
2022-08-26T13:11:29.100Z,100053.13
2022-08-26T13:14:07.211Z,100050.63
2022-08-26T13:16:39.171Z,100043.19
2022-08-26T13:19:12.297Z,100032.91
2022-08-26T13:21:47.890Z,100051.13
2022-08-26T13:24:20.412Z,100051.13
2022-08-26T13:26:54.129Z,100047.34
2022-08-26T13:29:23.846Z,100060.63
2022-08-26T13:31:54.689Z,100054.50
2022-08-26T13:34:27.246Z,100051.72
2022-08-26T13:36:59.459Z,100055.09
2022-08-26T13:39:29.753Z,100054.28
2022-08-26T13:42:04.688Z,100061.94
2022-08-26T13:44:34.623Z,100053.34
2022-08-26T13:47:04.793Z,100062.84
2022-08-26T13:49:34.564Z,100061.63
2022-08-26T13:52:05.573Z,100069.38
2022-08-26T13:54:36.355Z,100068.19
2022-08-26T13:57:09.752Z,100056.59
2022-08-26T13:59:39.947Z,100050.31
2022-08-26T14:02:10.813Z,100039.31
2022-08-26T14:04:40.525Z,100031.41
2022-08-26T14:07:10.498Z,100024.72
2022-08-26T14:09:40.266Z,100016.03
2022-08-26T14:12:13.741Z,100009.97
2022-08-26T14:14:45.676Z,100016.00
2022-08-26T14:17:20.115Z,100013.31
2022-08-26T14:19:51.901Z,100021.09
2022-08-26T14:22:25.415Z,100025.97
2022-08-26T14:24:55.266Z,100018.69
2022-08-26T14:27:27.872Z,100023.09
2022-08-26T14:29:57.714Z,100021.94
2022-08-26T14:32:32.416Z,100026.16
2022-08-26T14:35:02.136Z,100029.25
2022-08-26T14:37:32.224Z,100024.91
2022-08-26T14:40:06.102Z,100028.44
2022-08-26T14:42:39.012Z,100027.41
2022-08-26T14:45:14.856Z,100017.38
2022-08-26T14:47:44.969Z,100025.53
2022-08-26T14:50:15.636Z,100024.59
2022-08-26T14:52:57.887Z,100033.19
2022-08-26T14:55:28.191Z,100038.03
2022-08-26T14:58:00.685Z,100043.06
2022-08-26T15:00:31.175Z,100041.34
2022-08-26T15:03:01.678Z,100032.56
2022-08-26T15:05:32.365Z,100038.06
2022-08-26T15:08:10.805Z,100034.88
2022-08-26T15:10:41.914Z,100027.72
2022-08-26T15:13:15.166Z,100027.72
2022-08-26T15:15:44.976Z,100037.72
2022-08-26T15:18:14.863Z,100035.81
2022-08-26T15:20:45.051Z,100039.94
2022-08-26T15:23:15.265Z,100038.72
2022-08-26T15:25:47.025Z,100045.81
2022-08-26T15:28:20.163Z,100048.03
2022-08-26T15:30:52.114Z,100040.03
2022-08-26T15:33:22.459Z,100049.16
2022-08-26T15:35:52.742Z,100052.50
2022-08-26T15:38:23.040Z,100064.78
2022-08-26T15:40:52.755Z,100061.47
2022-08-26T15:43:29.021Z,100068.38
2022-08-26T15:46:01.224Z,100066.47
2022-08-26T15:48:32.069Z,100074.88
2022-08-26T15:51:03.794Z,100075.47
2022-08-26T15:53:36.021Z,100084.84
2022-08-26T15:56:06.514Z,100101.25
2022-08-26T15:58:42.225Z,100074.00
2022-08-26T16:01:23.983Z,100082.47
2022-08-26T16:03:58.239Z,100069.69
2022-08-26T16:06:30.542Z,100064.47
2022-08-26T16:09:02.875Z,100065.59
2022-08-26T16:11:33.175Z,100056.22
2022-08-26T16:14:06.151Z,100042.16
2022-08-26T16:16:42.780Z,100050.09
2022-08-26T16:19:14.508Z,100055.59
2022-08-26T16:21:45.050Z,100066.66
2022-08-26T16:24:16.066Z,100070.63
2022-08-26T16:26:47.147Z,100058.84
2022-08-26T16:29:20.737Z,100061.00
2022-08-26T16:31:53.439Z,100064.00
2022-08-26T16:34:24.048Z,100063.84
2022-08-26T16:36:54.278Z,100072.63
2022-08-26T16:39:24.342Z,100067.84
2022-08-26T16:42:00.808Z,100064.44
2022-08-26T16:44:44.404Z,100062.31
2022-08-26T16:47:15.227Z,100062.75
2022-08-26T16:49:46.980Z,100075.28
2022-08-26T16:52:20.028Z,100065.75
2022-08-26T16:54:51.555Z,100067.09
2022-08-26T16:57:21.830Z,100077.78
2022-08-26T16:59:56.744Z,100083.94
2022-08-26T17:02:29.972Z,100084.69
2022-08-26T17:04:59.825Z,100098.56
2022-08-26T17:07:29.646Z,100113.91
2022-08-26T17:10:01.121Z,100117.31
2022-08-26T17:12:31.794Z,100123.09
2022-08-26T17:15:04.613Z,100127.19
2022-08-26T17:17:34.537Z,100115.59
2022-08-26T17:20:08.342Z,100109.13
2022-08-26T17:22:41.369Z,100118.22
2022-08-26T17:25:15.416Z,100106.47
2022-08-26T17:27:46.014Z,100101.03
2022-08-26T17:30:20.028Z,100116.06
2022-08-26T17:33:02.659Z,100119.78
2022-08-26T17:35:41.293Z,100124.53
2022-08-26T17:38:13.166Z,100106.09
2022-08-26T17:40:43.286Z,100096.56
2022-08-26T17:43:17.021Z,100093.91
2022-08-26T17:45:51.587Z,100104.94
2022-08-26T17:48:21.515Z,100101.81
2022-08-26T17:50:54.364Z,100099.28
2022-08-26T17:53:27.090Z,100088.13
2022-08-26T17:55:57.824Z,100081.88
2022-08-26T17:58:30.483Z,100101.13
2022-08-26T18:01:07.621Z,100102.47
2022-08-26T18:03:38.363Z,100112.13
2022-08-26T18:06:15.345Z,100114.88
2022-08-26T18:08:46.883Z,100114.19
2022-08-26T18:11:20.897Z,100114.28
2022-08-26T18:13:51.190Z,100118.66
2022-08-26T18:16:24.606Z,100126.69
2022-08-26T18:18:54.927Z,100132.06
2022-08-26T18:21:27.309Z,100127.06
2022-08-26T18:23:58.191Z,100132.03
2022-08-26T18:26:31.440Z,100127.59
2022-08-26T18:29:02.282Z,100131.88
2022-08-26T18:31:35.426Z,100125.81
2022-08-26T18:34:06.508Z,100124.88
2022-08-26T18:36:40.365Z,100129.75
2022-08-26T18:39:13.473Z,100138.69
2022-08-26T18:41:47.305Z,100143.09
2022-08-26T18:44:19.344Z,100140.56
2022-08-26T18:46:53.863Z,100153.84
2022-08-26T18:49:25.776Z,100153.16
2022-08-26T18:51:56.199Z,100161.78
2022-08-26T18:54:26.574Z,100161.25
2022-08-26T18:56:57.971Z,100167.94
2022-08-26T18:59:31.730Z,100170.88
2022-08-26T19:02:04.573Z,100183.44
2022-08-26T19:04:34.886Z,100169.31
2022-08-26T19:07:05.824Z,100179.38
2022-08-26T19:09:37.346Z,100177.34
2022-08-26T19:12:09.227Z,100182.31
2022-08-26T19:14:39.416Z,100186.69
2022-08-26T19:17:12.991Z,100181.50
2022-08-26T19:19:43.558Z,100186.38
2022-08-26T19:22:20.169Z,100189.09
2022-08-26T19:24:51.101Z,100189.47
2022-08-26T19:27:26.785Z,100170.03
2022-08-26T19:30:01.071Z,100185.03
2022-08-26T19:32:37.307Z,100187.53
2022-08-26T19:35:11.887Z,100196.13
2022-08-26T19:37:41.937Z,100187.63
2022-08-26T19:40:13.952Z,100187.78
2022-08-26T19:42:45.048Z,100186.38
2022-08-26T19:45:33.698Z,100179.72
2022-08-26T19:48:15.478Z,100166.59
2022-08-26T19:50:52.648Z,100192.97
2022-08-26T19:53:25.857Z,100164.66
2022-08-26T19:55:56.299Z,100183.94
2022-08-26T19:58:28.865Z,100186.31
2022-08-26T20:00:59.555Z,100176.28
2022-08-26T20:03:32.933Z,100170.19
2022-08-26T20:06:07.743Z,100165.47
2022-08-26T20:08:39.068Z,100149.03
2022-08-26T20:11:12.925Z,100160.81
2022-08-26T20:13:43.769Z,100145.28
2022-08-26T20:16:14.775Z,100151.88
2022-08-26T20:19:03.712Z,100152.03
2022-08-26T20:21:38.436Z,100152.03
2022-08-26T20:24:11.718Z,100142.00
2022-08-26T20:26:43.734Z,100145.09
2022-08-26T20:29:17.303Z,100151.69
2022-08-26T20:31:48.201Z,100158.91
2022-08-26T20:34:24.681Z,100170.50
2022-08-26T20:36:55.277Z,100157.69
2022-08-26T20:39:25.154Z,100170.22
2022-08-26T20:41:55.545Z,100176.78
2022-08-26T20:44:25.811Z,100180.88
2022-08-26T20:46:56.762Z,100186.03
2022-08-26T20:49:31.305Z,100178.38
2022-08-26T20:52:04.448Z,100186.34
2022-08-26T20:54:34.729Z,100183.97
2022-08-26T20:57:05.075Z,100180.22
2022-08-26T20:59:35.001Z,100185.69
2022-08-26T21:02:05.289Z,100191.22
2022-08-26T21:04:38.574Z,100190.91
2022-08-26T21:07:09.037Z,100199.97
2022-08-26T21:09:38.825Z,100192.31
2022-08-26T21:12:08.896Z,100191.38
2022-08-26T21:14:38.655Z,100186.38
2022-08-26T21:17:08.680Z,100199.03
2022-08-26T21:19:42.048Z,100218.09
2022-08-26T21:22:12.540Z,100207.28
2022-08-26T21:24:44.734Z,100205.88
2022-08-26T21:27:19.568Z,100195.22
2022-08-26T21:29:56.355Z,100202.59
2022-08-26T21:32:26.728Z,100204.78
2022-08-26T21:35:02.031Z,100205.56
2022-08-26T21:37:32.258Z,100211.06
2022-08-26T21:40:04.282Z,100207.16
2022-08-26T21:42:36.329Z,100205.88
2022-08-26T21:45:06.994Z,100211.81
2022-08-26T21:47:38.574Z,100211.31
2022-08-26T21:50:12.850Z,100223.84
2022-08-26T21:52:43.957Z,100226.78
2022-08-26T21:55:14.623Z,100240.53
2022-08-26T21:57:45.515Z,100249.47
2022-08-26T22:00:17.403Z,100258.00
2022-08-26T22:02:48.361Z,100251.59
2022-08-26T22:05:21.747Z,100250.78
2022-08-26T22:07:52.189Z,100261.78
2022-08-26T22:10:23.827Z,100253.81
2022-08-26T22:12:53.873Z,100256.81
2022-08-26T22:15:27.617Z,100262.28
2022-08-26T22:17:58.000Z,100254.94
2022-08-26T22:20:31.142Z,100248.34
2022-08-26T22:23:02.520Z,100252.00
2022-08-26T22:25:33.079Z,100250.88
2022-08-26T22:28:04.245Z,100262.75
2022-08-26T22:30:35.438Z,100255.47
2022-08-26T22:33:06.711Z,100258.22
2022-08-26T22:35:41.797Z,100266.25
2022-08-26T22:38:11.998Z,100256.59
2022-08-26T22:40:47.875Z,100261.44
2022-08-26T22:43:18.203Z,100261.56
2022-08-26T22:45:51.978Z,100256.41
2022-08-26T22:48:30.846Z,100255.63
2022-08-26T22:51:04.174Z,100253.31
2022-08-26T22:53:34.620Z,100257.25
2022-08-26T22:56:06.872Z,100262.69
2022-08-26T22:58:36.957Z,100262.81
2022-08-26T23:01:08.218Z,100263.00
2022-08-26T23:03:38.586Z,100257.38
2022-08-26T23:06:13.343Z,100264.84
2022-08-26T23:08:46.663Z,100264.56
2022-08-26T23:11:17.991Z,100257.38
2022-08-26T23:13:48.356Z,100259.47
2022-08-26T23:16:18.666Z,100260.31
2022-08-26T23:18:49.047Z,100261.44
2022-08-26T23:21:21.950Z,100258.50
2022-08-26T23:23:52.316Z,100261.81
2022-08-26T23:26:22.373Z,100261.56
2022-08-26T23:28:53.468Z,100253.75
2022-08-26T23:31:24.461Z,100260.81
2022-08-26T23:34:07.017Z,100252.22
2022-08-26T23:36:39.948Z,100253.31
2022-08-26T23:39:10.126Z,100247.88
2022-08-26T23:41:40.293Z,100252.81
2022-08-26T23:44:12.080Z,100256.91
2022-08-26T23:46:42.180Z,100260.97
2022-08-26T23:49:12.587Z,100252.38
2022-08-26T23:51:57.633Z,100249.69
2022-08-26T23:54:28.277Z,100252.28
2022-08-26T23:56:58.417Z,100252.53
2022-08-26T23:59:31.810Z,100258.28
